Time;durP1;ratioP1;P1;durP2;ratioP2;P2;SDS_P1;SDS_P2;PMS_P1;PMS_P2;Temp;Humidity;BMP_temperature;BMP_pressure;BME280_temperature;BME280_humidity;BME280_pressure;Samples;Min_cycle;Max_cycle;Signal;HPM_P1;HPM_P2
2023/01/30 00:01:54;;;;;;;24.90;14.70;;;;;;;5.93;65.27;101855.94;5071213;28;20139;-59
2023/01/30 00:04:23;;;;;;;23.30;14.63;;;;;;;5.91;65.87;101852.59;5082455;28;20051;-59
2023/01/30 00:06:51;;;;;;;21.65;14.55;;;;;;;5.92;65.74;101846.28;5077852;28;20062;-60
2023/01/30 00:09:19;;;;;;;24.52;14.85;;;;;;;5.91;66.09;101831.25;5082207;28;20076;-60
2023/01/30 00:11:47;;;;;;;22.73;13.85;;;;;;;5.90;66.49;101822.44;5084262;28;20116;-59
2023/01/30 00:14:14;;;;;;;27.05;14.95;;;;;;;5.92;66.18;101824.94;5081068;28;20386;-59
2023/01/30 00:16:42;;;;;;;23.98;15.50;;;;;;;5.92;66.51;101823.09;5069240;28;20108;-59
2023/01/30 00:19:10;;;;;;;20.48;13.45;;;;;;;5.93;65.58;101818.59;5075201;28;20052;-59
2023/01/30 00:21:39;;;;;;;19.95;13.48;;;;;;;5.94;65.63;101814.91;5082126;28;20075;-59
2023/01/30 00:24:07;;;;;;;23.55;14.57;;;;;;;5.93;65.63;101800.75;5081466;28;20075;-59
2023/01/30 00:26:35;;;;;;;20.02;13.30;;;;;;;5.93;65.66;101791.91;5069424;28;20537;-59
2023/01/30 00:29:03;;;;;;;20.88;13.77;;;;;;;5.92;65.53;101788.41;5082376;28;20053;-59
2023/01/30 00:31:31;;;;;;;19.75;13.25;;;;;;;5.93;65.53;101797.25;5082594;28;20048;-59
2023/01/30 00:33:58;;;;;;;24.88;14.57;;;;;;;5.93;66.03;101792.75;5078118;28;20064;-59
2023/01/30 00:36:26;;;;;;;17.92;12.73;;;;;;;5.94;65.84;101807.75;5089817;28;20528;-59
2023/01/30 00:38:58;;;;;;;21.48;13.07;;;;;;;5.96;66.10;101810.25;5076492;28;20059;-59
2023/01/30 00:47:03;;;;;;;20.52;13.35;;;;;;;5.96;66.19;101812.91;5066727;28;20487;-59
2023/01/30 00:47:08;;;;;;;17.65;12.38;;;;;;;5.97;65.73;101791.41;5078840;28;20108;-59
2023/01/30 00:49:37;;;;;;;19.38;11.85;;;;;;;5.97;66.49;101770.06;5081308;28;20044;-59
2023/01/30 00:52:05;;;;;;;17.65;12.27;;;;;;;5.98;65.82;101782.41;5075924;28;20052;-60
2023/01/30 00:54:34;;;;;;;20.77;13.98;;;;;;;5.98;66.92;101787.75;5078202;28;20044;-59
2023/01/30 00:57:02;;;;;;;21.83;12.88;;;;;;;5.98;66.50;101795.75;5079064;28;20134;-59
2023/01/30 00:59:30;;;;;;;18.70;12.23;;;;;;;6.01;66.13;101786.56;5074591;28;20513;-59
2023/01/30 01:01:58;;;;;;;20.73;12.40;;;;;;;6.00;66.36;101796.41;5070312;28;20053;-59
2023/01/30 01:04:26;;;;;;;19.05;13.02;;;;;;;6.01;66.62;101784.72;5078603;28;20056;-60
2023/01/30 01:06:54;;;;;;;16.25;11.50;;;;;;;6.03;66.04;101779.22;5072752;28;20055;-59
2023/01/30 01:09:21;;;;;;;20.17;12.07;;;;;;;6.03;66.83;101784.56;5069335;28;20052;-59
2023/01/30 01:11:50;;;;;;;21.15;13.65;;;;;;;6.03;66.63;101777.41;5078537;28;20052;-59
2023/01/30 01:14:18;;;;;;;19.17;13.23;;;;;;;6.03;67.24;101787.22;5080269;28;20049;-59
2023/01/30 01:16:46;;;;;;;21.73;12.15;;;;;;;6.04;66.67;101791.56;5072062;28;20151;-59
2023/01/30 01:19:14;;;;;;;19.80;12.75;;;;;;;6.04;66.93;101787.06;5069778;28;20059;-60
2023/01/30 01:21:42;;;;;;;19.38;12.32;;;;;;;6.06;66.70;101779.72;5071142;28;20053;-59
2023/01/30 01:24:13;;;;;;;21.40;13.45;;;;;;;6.06;67.11;101777.06;5076798;28;20040;-59
2023/01/30 01:26:41;;;;;;;20.83;13.07;;;;;;;6.07;66.98;101783.22;5080285;28;20060;-59
2023/01/30 01:29:13;;;;;;;20.92;13.07;;;;;;;6.03;67.14;101779.22;5077752;28;20067;-59
2023/01/30 01:31:41;;;;;;;22.73;13.38;;;;;;;6.06;67.45;101790.41;5075317;28;20128;-60
2023/01/30 01:34:09;;;;;;;22.58;12.57;;;;;;;6.07;67.06;101783.22;5069444;28;20134;-60
2023/01/30 01:36:36;;;;;;;19.85;12.68;;;;;;;6.08;67.67;101772.38;5076611;28;20047;-59
2023/01/30 01:39:21;;;;;;;20.15;12.27;;;;;;;6.07;66.75;101761.88;5076357;28;20045;-59
2023/01/30 01:41:48;;;;;;;22.05;13.45;;;;;;;6.10;67.19;101766.88;5071669;28;20049;-60
2023/01/30 01:44:17;;;;;;;18.30;12.00;;;;;;;6.10;66.80;101762.38;5072690;28;20148;-58
2023/01/30 01:46:48;;;;;;;17.48;11.68;;;;;;;6.11;67.28;101752.53;5080250;28;20049;-59
2023/01/30 01:49:21;;;;;;;20.35;12.13;;;;;;;6.09;67.37;101755.38;5075617;28;20049;-59
2023/01/30 01:51:54;;;;;;;27.33;12.60;;;;;;;6.10;67.80;101753.53;5079800;28;20055;-59
2023/01/30 01:54:26;;;;;;;19.02;12.02;;;;;;;6.12;67.41;101749.69;5071415;28;20075;-60
2023/01/30 01:56:54;;;;;;;17.63;12.30;;;;;;;6.12;67.66;101735.50;5078452;28;20045;-59
2023/01/30 01:59:28;;;;;;;18.27;12.52;;;;;;;6.12;67.16;101725.66;5080548;28;20055;-59
2023/01/30 02:02:01;;;;;;;19.85;12.35;;;;;;;6.11;67.61;101717.84;5069285;28;20044;-59
2023/01/30 02:07:26;;;;;;;24.02;12.40;;;;;;;6.14;67.07;101712.16;5035697;28;20119;-59
2023/01/30 02:09:54;;;;;;;17.83;12.25;;;;;;;6.13;67.55;101697.16;5037110;28;20072;-59
2023/01/30 02:12:22;;;;;;;19.20;11.85;;;;;;;6.13;67.54;101700.66;5042192;28;20075;-59
2023/01/30 02:14:53;;;;;;;19.90;11.77;;;;;;;6.14;67.49;101701.47;5035580;28;20046;-59
2023/01/30 02:17:23;;;;;;;18.73;10.65;;;;;;;6.16;67.11;101707.47;5042303;28;20049;-59
2023/01/30 02:19:55;;;;;;;21.48;12.88;;;;;;;6.16;67.50;101699.47;5038717;28;20057;-59
2023/01/30 02:22:36;;;;;;;19.17;11.98;;;;;;;6.17;67.08;101706.47;5037867;28;20502;-59
2023/01/30 02:25:32;;;;;;;23.65;12.15;;;;;;;6.16;67.62;101699.47;5035600;28;20049;-59
2023/01/30 02:28:22;;;;;;;18.67;12.13;;;;;;;6.14;67.85;101691.63;5032295;28;20113;-59
2023/01/30 02:31:05;;;;;;;17.95;11.93;;;;;;;6.17;68.09;101690.47;5030514;28;20163;-59
2023/01/30 02:33:40;;;;;;;18.40;11.57;;;;;;;6.17;67.80;101680.63;5034493;28;20046;-60
2023/01/30 02:36:19;;;;;;;19.73;11.68;;;;;;;6.17;67.81;101667.28;5035023;28;20060;-59
2023/01/30 02:38:53;;;;;;;18.75;11.68;;;;;;;6.18;67.47;101660.94;5042664;28;20053;-60
2023/01/30 02:41:29;;;;;;;19.58;12.38;;;;;;;6.17;68.10;101659.25;5038099;28;20041;-59
2023/01/30 02:44:03;;;;;;;17.15;11.68;;;;;;;6.18;67.87;101658.25;5077887;28;20090;-59
2023/01/30 02:46:39;;;;;;;18.73;12.07;;;;;;;6.18;68.13;101655.59;5077441;28;20123;-59
2023/01/30 02:49:13;;;;;;;21.38;11.85;;;;;;;6.19;67.68;101656.44;5079376;28;20163;-59
2023/01/30 02:51:43;;;;;;;18.85;12.57;;;;;;;6.18;68.29;101660.94;5076320;28;20048;-59
2023/01/30 02:54:12;;;;;;;19.15;11.23;;;;;;;6.19;68.01;101662.59;5069872;28;20068;-59
2023/01/30 02:56:45;;;;;;;19.75;11.18;;;;;;;6.19;67.95;101661.75;5076853;28;20101;-59
2023/01/30 02:59:15;;;;;;;18.17;11.35;;;;;;;6.21;67.79;101662.41;5078821;28;20056;-59
2023/01/30 03:02:07;;;;;;;18.73;11.18;;;;;;;6.23;67.93;101659.59;5078231;28;20136;-59
2023/01/30 03:04:57;;;;;;;16.17;11.55;;;;;;;6.20;68.42;101656.25;5088603;28;20061;-59
2023/01/30 03:07:37;;;;;;;18.08;11.10;;;;;;;6.25;67.79;101654.91;5083954;28;21475;-59
2023/01/30 03:10:12;;;;;;;23.08;11.82;;;;;;;6.23;68.44;101660.41;5072092;28;20049;-59
2023/01/30 03:12:48;;;;;;;17.50;11.70;;;;;;;6.23;68.35;101665.75;5077083;28;20106;-60
2023/01/30 03:15:22;;;;;;;20.80;11.57;;;;;;;6.24;68.65;101659.41;5082955;28;20142;-59
2023/01/30 03:17:51;;;;;;;18.38;12.30;;;;;;;6.23;68.87;101647.06;5077090;28;20104;-59
2023/01/30 03:20:20;;;;;;;18.55;12.15;;;;;;;6.22;68.59;101645.41;5081343;28;20083;-59
2023/01/30 03:22:48;;;;;;;22.13;12.07;;;;;;;6.23;68.87;101649.75;5081132;28;20132;-60
2023/01/30 03:25:20;;;;;;;24.38;13.13;;;;;;;6.23;68.70;101643.56;5078940;28;20117;-59
2023/01/30 03:27:51;;;;;;;21.10;12.40;;;;;;;6.24;69.00;101642.56;5078554;28;20115;-59
2023/01/30 03:30:19;;;;;;;17.40;11.98;;;;;;;6.24;68.51;101645.22;5072934;28;20604;-60
2023/01/30 03:32:46;;;;;;;20.85;11.85;;;;;;;6.25;68.98;101634.38;5076478;28;20112;-59
2023/01/30 03:35:16;;;;;;;19.45;12.48;;;;;;;6.26;68.69;101627.19;5078615;28;20055;-59
2023/01/30 03:37:44;;;;;;;20.80;12.25;;;;;;;6.27;69.76;101628.88;5082586;28;20052;-58
2023/01/30 03:40:14;;;;;;;19.40;12.43;;;;;;;6.27;69.51;101626.19;5072996;28;20041;-59
2023/01/30 03:42:42;;;;;;;18.40;12.23;;;;;;;6.27;70.36;101631.53;5071929;28;20059;-59
2023/01/30 03:45:11;;;;;;;18.00;11.15;;;;;;;6.27;69.73;101620.84;5076757;28;20120;-59
2023/01/30 03:47:38;;;;;;;16.90;11.55;;;;;;;6.27;70.16;101608.34;5070774;28;20101;-59
2023/01/30 03:50:07;;;;;;;21.73;12.50;;;;;;;6.26;70.10;101601.34;5071650;28;20084;-59
2023/01/30 03:52:36;;;;;;;17.63;12.73;;;;;;;6.27;71.47;101608.34;5079735;28;20072;-58
2023/01/30 03:55:05;;;;;;;19.48;12.70;;;;;;;6.28;70.38;101618.00;5075680;28;20076;-59
2023/01/30 03:57:32;;;;;;;15.95;11.60;;;;;;;6.30;71.42;101610.66;5079361;28;20053;-59
2023/01/30 04:00:00;;;;;;;18.85;12.43;;;;;;;6.30;70.25;101617.84;5067352;28;20076;-59
2023/01/30 04:02:28;;;;;;;19.40;12.05;;;;;;;6.30;71.44;101608.00;5080700;28;20112;-59
2023/01/30 04:04:56;;;;;;;18.15;11.65;;;;;;;6.31;71.49;101608.81;5068070;28;20053;-59
2023/01/30 04:07:23;;;;;;;16.08;11.85;;;;;;;6.30;70.80;101613.34;5077003;28;20049;-59
2023/01/30 04:09:53;;;;;;;15.32;11.30;;;;;;;6.31;71.34;101617.66;5081029;28;20049;-59
2023/01/30 04:12:20;;;;;;;22.73;11.82;;;;;;;6.32;70.64;101618.50;5075329;28;20041;-58
2023/01/30 04:14:48;;;;;;;18.45;11.68;;;;;;;6.33;71.64;101617.50;5065240;28;20045;-59
2023/01/30 04:17:16;;;;;;;18.73;10.52;;;;;;;6.33;70.50;101612.97;5076118;28;20113;-59
2023/01/30 04:19:44;;;;;;;19.90;10.73;;;;;;;6.33;71.21;101612.97;5076256;28;20100;-60
2023/01/30 04:22:11;;;;;;;17.23;10.63;;;;;;;6.34;71.41;101603.13;5075153;28;20100;-59
2023/01/30 04:24:39;;;;;;;15.20;10.80;;;;;;;6.35;70.64;101607.47;5076312;28;20083;-59
2023/01/30 04:27:09;;;;;;;17.77;11.20;;;;;;;6.34;71.60;101601.28;5079986;28;20058;-59
2023/01/30 04:29:36;;;;;;;15.57;9.85;;;;;;;6.33;71.17;101601.47;5074855;28;20044;-59
2023/01/30 04:32:04;;;;;;;15.10;10.00;;;;;;;6.32;71.06;101597.97;5080334;28;20040;-60
2023/01/30 04:34:32;;;;;;;17.98;10.52;;;;;;;6.34;70.32;101600.47;5075259;28;20045;-59
2023/01/30 04:37:00;;;;;;;14.15;10.60;;;;;;;6.34;71.06;101589.78;5073527;28;20051;-59
2023/01/30 04:39:27;;;;;;;17.95;9.98;;;;;;;6.34;69.85;101595.97;5076059;28;20045;-59
2023/01/30 04:41:55;;;;;;;14.80;10.02;;;;;;;6.36;70.90;101603.78;5077725;28;20055;-59
2023/01/30 04:44:24;;;;;;;17.38;11.00;;;;;;;6.36;70.81;101598.44;5078066;28;20059;-59
2023/01/30 04:46:52;;;;;;;14.93;10.15;;;;;;;6.36;71.25;101595.78;5080946;28;20131;-59
2023/01/30 04:49:20;;;;;;;21.50;11.43;;;;;;;6.36;71.13;101593.94;5079446;28;20064;-59
2023/01/30 04:51:47;;;;;;;14.55;10.80;;;;;;;6.38;71.28;101599.94;5082109;28;20066;-59
2023/01/30 04:54:15;;;;;;;16.98;10.30;;;;;;;6.37;71.36;101600.94;5075752;28;20048;-60
2023/01/30 04:56:43;;;;;;;12.38;9.93;;;;;;;6.37;71.47;101600.13;5075117;28;20080;-59
2023/01/30 04:59:11;;;;;;;16.98;9.65;;;;;;;6.39;70.99;101603.44;5070215;28;20059;-59
2023/01/30 05:01:40;;;;;;;13.35;10.07;;;;;;;6.39;71.38;101611.44;5072941;28;20127;-61
2023/01/30 05:04:08;;;;;;;13.27;9.90;;;;;;;6.40;71.35;101611.28;5077443;28;20045;-59
2023/01/30 05:06:36;;;;;;;13.23;9.95;;;;;;;6.40;71.34;101613.09;5075818;28;20076;-59
2023/01/30 05:09:04;;;;;;;16.60;11.13;;;;;;;6.41;71.66;101607.59;5075602;28;20063;-59
2023/01/30 05:11:32;;;;;;;13.38;9.82;;;;;;;6.43;71.65;101616.25;5078936;28;20068;-59
2023/01/30 05:14:01;;;;;;;16.38;10.20;;;;;;;6.42;71.69;101617.28;5077066;28;20068;-59
2023/01/30 05:16:29;;;;;;;15.48;9.98;;;;;;;6.42;71.62;101619.94;5074602;28;20499;-59
2023/01/30 05:18:58;;;;;;;15.55;10.55;;;;;;;6.43;71.45;101612.75;5070791;28;20131;-59
2023/01/30 05:21:27;;;;;;;18.45;10.70;;;;;;;6.44;71.80;101611.75;5076648;28;20623;-59
2023/01/30 05:23:56;;;;;;;13.43;8.60;;;;;;;6.44;71.63;101617.09;5075050;28;20071;-59
2023/01/30 05:26:24;;;;;;;15.80;9.73;;;;;;;6.45;71.94;101605.41;5070599;28;20079;-59
2023/01/30 05:28:53;;;;;;;16.77;9.18;;;;;;;6.46;71.94;101607.91;5074435;28;20049;-59
2023/01/30 05:31:20;;;;;;;17.30;9.35;;;;;;;6.48;72.09;101597.03;5075413;28;20059;-59
2023/01/30 05:33:51;;;;;;;12.93;8.57;;;;;;;6.47;72.58;101606.06;5078269;28;20049;-59
2023/01/30 05:36:22;;;;;;;16.13;7.90;;;;;;;6.46;71.92;101605.22;5081403;28;20156;-59
2023/01/30 05:38:50;;;;;;;16.45;8.38;;;;;;;6.47;71.91;101606.91;5067159;28;20460;-59
2023/01/30 05:41:18;;;;;;;14.38;8.65;;;;;;;6.47;72.09;101609.56;5072072;28;20044;-59
2023/01/30 05:43:49;;;;;;;16.83;7.90;;;;;;;6.46;72.17;101618.59;5070934;28;20044;-60
2023/01/30 05:46:17;;;;;;;13.65;7.53;;;;;;;6.48;72.13;101608.56;5071360;28;20710;-59
2023/01/30 05:48:45;;;;;;;14.98;6.85;;;;;;;6.49;71.50;101602.22;5067852;28;20063;-59
2023/01/30 05:51:18;;;;;;;13.50;6.70;;;;;;;6.50;72.32;101609.22;5073133;28;20436;-59
2023/01/30 05:53:47;;;;;;;12.35;8.02;;;;;;;6.52;72.34;101609.88;5080654;28;20064;-59
2023/01/30 05:56:16;;;;;;;11.23;6.57;;;;;;;6.52;72.17;101601.84;5071940;28;20112;-59
2023/01/30 05:58:44;;;;;;;13.73;5.82;;;;;;;6.51;72.18;101597.53;5073984;28;20049;-59
2023/01/30 06:01:12;;;;;;;13.73;6.25;;;;;;;6.51;72.41;101605.53;5076815;28;20044;-61
2023/01/30 06:03:40;;;;;;;14.07;6.25;;;;;;;6.56;72.63;101614.84;4717163;28;10000359;-60
2023/01/30 06:06:10;;;;;;;12.00;5.47;;;;;;;6.70;71.76;101622.94;5069164;28;20139;-60
2023/01/30 06:08:38;;;;;;;12.32;5.15;;;;;;;6.90;70.82;101642.00;5068088;28;20194;-59
2023/01/30 06:11:10;;;;;;;10.35;5.30;;;;;;;7.08;70.87;101631.81;5064331;28;20129;-59
2023/01/30 06:13:38;;;;;;;15.30;5.13;;;;;;;7.26;70.45;101625.31;5068205;28;20470;-59
2023/01/30 06:16:07;;;;;;;15.48;5.15;;;;;;;7.39;70.27;101625.53;5070330;28;20075;-60
2023/01/30 06:18:36;;;;;;;14.45;5.00;;;;;;;7.53;69.81;101626.56;5061780;28;20100;-59
2023/01/30 06:21:04;;;;;;;10.50;4.82;;;;;;;7.71;69.09;101619.00;5071780;28;20050;-60
2023/01/30 06:23:32;;;;;;;13.02;5.78;;;;;;;7.84;69.24;101625.38;5073922;28;20044;-59
2023/01/30 06:26:00;;;;;;;13.38;5.97;;;;;;;8.00;67.97;101628.88;5066711;28;20069;-61
2023/01/30 06:28:32;;;;;;;12.27;4.18;;;;;;;8.09;68.24;101628.59;5071930;28;20041;-59
2023/01/30 06:31:01;;;;;;;14.40;4.75;;;;;;;8.01;67.54;101623.34;5065842;28;20049;-59
2023/01/30 06:33:28;;;;;;;11.13;4.47;;;;;;;7.88;68.74;101635.72;5069415;28;20083;-60
2023/01/30 06:35:56;;;;;;;14.30;5.82;;;;;;;7.71;68.99;101640.41;5070012;28;20045;-59
2023/01/30 06:38:24;;;;;;;9.50;4.43;;;;;;;7.57;69.93;101649.25;5064920;28;20140;-59
2023/01/30 06:40:52;;;;;;;15.02;4.68;;;;;;;7.45;69.84;101664.91;5066880;28;20049;-59
2023/01/30 06:43:20;;;;;;;9.23;4.25;;;;;;;7.35;70.62;101659.81;5073324;28;20051;-59
2023/01/30 06:45:49;;;;;;;8.10;3.92;;;;;;;7.32;70.96;101656.66;5065115;28;20053;-60
2023/01/30 06:48:17;;;;;;;11.82;4.50;;;;;;;7.24;71.10;101636.19;5077233;28;20045;-60
2023/01/30 06:50:46;;;;;;;17.40;4.90;;;;;;;7.22;71.44;101645.41;5071650;28;20117;-59
2023/01/30 06:53:14;;;;;;;12.40;3.70;;;;;;;7.18;71.50;101661.78;5072486;28;20083;-59
2023/01/30 06:55:42;;;;;;;14.57;4.78;;;;;;;7.13;71.96;101666.84;5070617;28;20341;-60
2023/01/30 06:58:11;;;;;;;15.07;4.60;;;;;;;7.09;72.21;101667.38;5075327;28;20083;-60
2023/01/30 07:00:40;;;;;;;15.57;4.07;;;;;;;7.07;72.15;101672.06;5066216;28;20054;-60
2023/01/30 07:03:12;;;;;;;15.73;3.97;;;;;;;7.03;72.08;101673.44;5070530;28;20079;-59
2023/01/30 07:05:40;;;;;;;11.38;3.78;;;;;;;7.01;72.18;101651.41;5071422;28;20059;-60
2023/01/30 07:08:09;;;;;;;12.88;3.38;;;;;;;6.98;71.90;101646.41;5072234;28;20132;-60
2023/01/30 07:10:37;;;;;;;15.45;3.95;;;;;;;6.97;71.98;101642.91;5067543;28;20131;-59
2023/01/30 07:13:05;;;;;;;12.30;3.85;;;;;;;6.95;71.83;101655.63;5073038;28;20632;-61
2023/01/30 07:15:32;;;;;;;14.50;3.00;;;;;;;6.93;71.76;101657.69;5061456;28;20049;-60
2023/01/30 07:18:00;;;;;;;17.17;3.85;;;;;;;6.92;71.91;101655.19;5076734;28;20512;-59
2023/01/30 07:20:30;;;;;;;12.75;3.22;;;;;;;6.90;71.80;101667.88;5077979;28;20055;-61
2023/01/30 07:22:58;;;;;;;15.73;3.53;;;;;;;6.87;71.77;101671.75;5077064;28;20079;-61
2023/01/30 07:25:27;;;;;;;12.90;4.30;;;;;;;6.89;71.83;101674.25;5072731;28;20049;-61
2023/01/30 07:27:57;;;;;;;18.77;4.00;;;;;;;6.85;73.07;101674.59;5083476;28;20150;-61
2023/01/30 07:30:26;;;;;;;13.27;2.90;;;;;;;6.83;71.86;101683.78;5075310;28;20105;-60
2023/01/30 07:32:56;;;;;;;13.32;3.92;;;;;;;6.83;72.00;101673.94;5072022;28;20053;-59
2023/01/30 07:35:25;;;;;;;12.48;2.90;;;;;;;6.81;72.10;101680.47;5079231;28;20044;-59
2023/01/30 07:37:55;;;;;;;12.75;3.25;;;;;;;6.82;71.79;101679.47;5079460;28;20055;-60
2023/01/30 07:40:23;;;;;;;12.63;3.85;;;;;;;6.82;72.13;101690.97;5073905;28;20076;-61
2023/01/30 07:42:59;;;;;;;14.77;3.92;;;;;;;6.82;72.02;101692.81;5072958;28;20048;-61
2023/01/30 07:45:34;;;;;;;13.75;2.70;;;;;;;6.81;71.10;101689.31;5072433;28;20041;-59
2023/01/30 07:48:02;;;;;;;15.88;3.85;;;;;;;6.83;71.19;101691.81;5083190;28;20055;-60
2023/01/30 07:50:30;;;;;;;15.88;4.55;;;;;;;6.81;71.17;101705.34;5069711;28;20455;-59
2023/01/30 07:52:59;;;;;;;15.35;4.10;;;;;;;6.79;70.77;101699.34;5075528;28;20665;-59
2023/01/30 07:55:27;;;;;;;15.38;2.72;;;;;;;6.79;70.72;101701.19;5078124;28;20083;-60
2023/01/30 07:57:55;;;;;;;14.45;3.35;;;;;;;6.74;70.71;101698.22;5074063;28;20096;-58
2023/01/30 08:00:23;;;;;;;13.88;3.40;;;;;;;6.77;70.20;101701.38;5075233;28;20123;-59
2023/01/30 08:02:51;;;;;;;12.40;2.33;;;;;;;6.76;70.42;101696.19;5078147;28;20107;-59
2023/01/30 08:05:19;;;;;;;17.08;3.65;;;;;;;6.75;70.22;101694.53;5073735;28;20078;-60
2023/01/30 08:07:47;;;;;;;23.77;4.20;;;;;;;6.75;69.99;101702.53;5075846;28;20114;-60
2023/01/30 08:10:16;;;;;;;11.20;2.85;;;;;;;6.74;69.91;101707.06;5064857;28;20053;-60
2023/01/30 08:12:45;;;;;;;11.05;2.70;;;;;;;6.74;70.16;101706.22;5071928;28;20045;-59
2023/01/30 08:15:12;;;;;;;22.17;3.88;;;;;;;6.74;70.18;101706.22;5071631;28;20091;-60
2023/01/30 08:17:40;;;;;;;13.73;3.08;;;;;;;6.74;70.24;101711.56;5073315;28;20052;-61
2023/01/30 08:20:09;;;;;;;23.45;4.50;;;;;;;6.74;69.82;101712.41;5074797;28;20051;-60
2023/01/30 08:22:37;;;;;;;13.68;2.55;;;;;;;6.74;70.08;101716.91;5078499;28;20263;-65
2023/01/30 08:25:06;;;;;;;15.73;3.53;;;;;;;6.73;69.92;101710.72;5075622;28;20131;-60
2023/01/30 08:27:35;;;;;;;18.27;4.50;;;;;;;6.74;69.44;101716.91;5071880;28;20048;-60
2023/01/30 08:30:04;;;;;;;20.98;4.70;;;;;;;6.75;69.44;101734.59;5064033;28;20148;-60
2023/01/30 08:32:32;;;;;;;18.75;4.78;;;;;;;6.75;68.99;101739.94;5068822;28;20532;-59
2023/01/30 08:35:00;;;;;;;17.30;4.13;;;;;;;6.73;69.28;101747.31;5073345;28;20132;-60
2023/01/30 08:37:28;;;;;;;15.50;3.50;;;;;;;6.76;68.90;101736.28;5068066;28;20040;-59
2023/01/30 08:39:55;;;;;;;23.90;4.32;;;;;;;6.77;68.94;101743.28;5075607;28;20059;-59
2023/01/30 08:42:23;;;;;;;13.70;2.58;;;;;;;6.74;68.78;101746.28;5077317;28;20052;-59
2023/01/30 08:44:52;;;;;;;23.10;4.53;;;;;;;6.73;68.35;101744.63;5075375;28;20053;-59
2023/01/30 08:47:20;;;;;;;19.00;3.78;;;;;;;6.75;68.46;101751.47;5076976;28;20131;-59
2023/01/30 08:49:50;;;;;;;22.92;4.68;;;;;;;6.87;68.04;101753.75;5070191;28;20060;-61
2023/01/30 08:52:17;;;;;;;21.75;3.40;;;;;;;7.00;67.84;101748.63;5074389;28;20514;-60
2023/01/30 08:54:45;;;;;;;23.05;3.38;;;;;;;7.16;67.15;101745.84;5071640;28;20064;-59
2023/01/30 08:57:13;;;;;;;13.98;3.60;;;;;;;7.29;66.25;101746.09;5075290;28;20064;-60
2023/01/30 08:59:41;;;;;;;16.92;3.83;;;;;;;7.53;65.40;101749.59;5074171;28;20076;-60
2023/01/30 09:02:12;;;;;;;13.45;3.17;;;;;;;7.65;65.44;101748.97;5067744;28;20048;-60
2023/01/30 09:04:40;;;;;;;18.55;4.00;;;;;;;7.79;64.63;101760.75;5072255;28;20064;-60
2023/01/30 09:07:07;;;;;;;19.42;4.03;;;;;;;7.90;63.65;101754.94;5076565;28;20062;-59
2023/01/30 09:09:35;;;;;;;14.13;4.50;;;;;;;7.99;63.42;101763.72;5072427;28;20127;-59
2023/01/30 09:12:03;;;;;;;14.07;2.80;;;;;;;7.98;63.48;101770.94;5076474;28;20397;-59
2023/01/30 09:14:31;;;;;;;19.38;4.88;;;;;;;7.91;63.95;101780.69;5077235;28;20080;-59
2023/01/30 09:16:59;;;;;;;17.23;2.92;;;;;;;7.82;64.07;101769.22;5060034;28;20084;-59
2023/01/30 09:19:28;;;;;;;22.42;5.00;;;;;;;7.74;64.60;101780.00;5071628;28;20066;-59
2023/01/30 09:21:56;;;;;;;20.67;5.75;;;;;;;7.79;64.08;101771.44;5077572;28;20143;-60
2023/01/30 09:24:25;;;;;;;22.45;4.20;;;;;;;7.92;63.94;101776.19;5077136;28;20036;-60
2023/01/30 09:26:56;;;;;;;23.13;4.03;;;;;;;8.04;62.96;101790.78;5074990;28;20076;-60
2023/01/30 09:29:24;;;;;;;21.75;4.05;;;;;;;8.09;63.00;101791.06;5069643;28;20045;-60
2023/01/30 09:31:52;;;;;;;14.57;4.35;;;;;;;8.04;62.50;101788.94;5076784;28;20108;-59
2023/01/30 09:34:20;;;;;;;14.63;4.07;;;;;;;7.93;63.44;101789.38;5077193;28;20050;-59
2023/01/30 09:36:49;;;;;;;16.73;3.85;;;;;;;7.79;63.83;101793.69;5074232;28;20058;-59
2023/01/30 09:39:17;;;;;;;17.85;3.10;;;;;;;7.67;64.18;101791.63;5069141;28;20045;-59
2023/01/30 09:42:08;;;;;;;18.38;3.30;;;;;;;7.55;64.35;101787.69;5064749;28;20049;-59
2023/01/30 09:45:14;;;;;;;16.45;3.58;;;;;;;7.46;64.13;101794.94;5067692;28;20517;-59
2023/01/30 09:47:50;;;;;;;19.88;3.78;;;;;;;7.50;64.56;101801.59;5031293;28;20061;-59
2023/01/30 09:50:34;;;;;;;17.88;3.13;;;;;;;7.65;63.84;101807.84;5034450;28;20076;-60
2023/01/30 09:53:13;;;;;;;17.25;3.15;;;;;;;7.83;63.49;101810.22;5031627;28;20132;-59
2023/01/30 09:55:42;;;;;;;14.77;3.33;;;;;;;7.94;63.16;101804.44;5018064;28;20136;-59
2023/01/30 09:58:17;;;;;;;18.60;4.40;;;;;;;7.95;63.10;101806.09;5025135;28;20103;-60
2023/01/30 10:00:47;;;;;;;17.60;3.30;;;;;;;7.90;62.96;101808.47;5026463;28;20056;-59
2023/01/30 10:03:17;;;;;;;14.95;3.45;;;;;;;7.81;63.33;101814.91;5025817;28;20445;-59
2023/01/30 10:05:49;;;;;;;13.05;3.60;;;;;;;7.70;63.72;101816.16;5024513;28;20054;-59
2023/01/30 10:08:46;;;;;;;15.88;3.67;;;;;;;7.63;63.73;101822.41;5030786;28;20049;-59
2023/01/30 10:11:32;;;;;;;17.88;2.90;;;;;;;7.56;63.89;101814.25;5028358;28;20077;-59
2023/01/30 10:14:14;;;;;;;16.40;3.55;;;;;;;7.49;63.62;101814.16;5022061;28;20384;-59
2023/01/30 10:16:52;;;;;;;21.02;4.30;;;;;;;7.45;63.79;101820.84;5022815;28;20041;-59
2023/01/30 10:19:44;;;;;;;16.88;3.97;;;;;;;7.44;63.31;101826.38;5028799;28;20053;-59
2023/01/30 10:22:26;;;;;;;16.88;3.63;;;;;;;7.42;63.46;101825.72;5022828;28;20109;-59
2023/01/30 10:25:07;;;;;;;16.92;4.25;;;;;;;7.45;63.60;101825.38;5072405;28;20063;-59
2023/01/30 10:27:37;;;;;;;22.88;4.88;;;;;;;7.61;63.12;101829.78;5078978;28;20044;-60
2023/01/30 10:30:10;;;;;;;20.38;3.88;;;;;;;7.76;62.57;101846.72;5067483;28;20053;-60
2023/01/30 10:32:42;;;;;;;18.17;4.28;;;;;;;7.95;62.05;101851.59;5071326;28;20111;-59
2023/01/30 10:35:16;;;;;;;17.02;4.15;;;;;;;8.11;61.79;101835.38;5078057;28;20048;-60
2023/01/30 10:37:53;;;;;;;15.48;3.17;;;;;;;8.27;60.75;101842.44;5070513;28;20067;-59
2023/01/30 10:40:29;;;;;;;25.25;4.18;;;;;;;8.44;60.24;101838.63;5070475;28;20496;-59
2023/01/30 10:43:03;;;;;;;25.23;3.72;;;;;;;8.60;59.91;101836.78;5071865;28;20056;-60
2023/01/30 10:45:41;;;;;;;17.05;3.58;;;;;;;8.74;59.24;101835.91;5079778;28;20454;-60
2023/01/30 10:48:33;;;;;;;14.23;3.38;;;;;;;8.85;58.58;101840.81;5075006;28;20064;-60
2023/01/30 10:51:23;;;;;;;18.92;3.28;;;;;;;8.99;58.18;101839.13;5078549;28;20044;-59
2023/01/30 10:53:56;;;;;;;17.40;3.40;;;;;;;9.03;57.90;101832.38;5070991;28;20076;-59
2023/01/30 10:56:37;;;;;;;17.35;3.72;;;;;;;9.06;57.59;101848.09;5079102;28;20045;-61
2023/01/30 10:59:15;;;;;;;13.15;4.40;;;;;;;9.05;57.47;101854.47;5071520;28;20085;-61
2023/01/30 11:01:50;;;;;;;19.90;3.22;;;;;;;9.04;57.68;101859.00;5077832;28;20064;-60
2023/01/30 11:04:25;;;;;;;14.30;2.60;;;;;;;9.09;56.86;101858.44;5076709;28;20048;-60
2023/01/30 11:06:55;;;;;;;18.10;2.97;;;;;;;9.15;56.64;101852.31;5085479;28;20130;-59
2023/01/30 11:09:23;;;;;;;16.55;3.42;;;;;;;9.08;56.83;101860.28;5082332;28;20056;-60
2023/01/30 11:11:54;;;;;;;17.90;4.20;;;;;;;9.08;56.70;101857.59;5082754;28;20049;-60
2023/01/30 11:14:22;;;;;;;9.90;2.92;;;;;;;9.01;57.22;101854.00;5080288;28;20053;-60
2023/01/30 11:16:53;;;;;;;16.40;3.70;;;;;;;8.90;57.49;101853.66;5084509;28;20048;-60
2023/01/30 11:19:24;;;;;;;15.52;3.38;;;;;;;8.75;58.19;101859.00;5084416;28;20056;-60
2023/01/30 11:21:54;;;;;;;16.27;3.72;;;;;;;8.55;58.41;101861.44;5077642;28;20072;-61
2023/01/30 11:24:28;;;;;;;14.70;2.80;;;;;;;8.38;58.85;101859.94;5083755;28;20104;-60
2023/01/30 11:27:09;;;;;;;20.35;3.78;;;;;;;8.22;59.03;101858.22;5074147;28;20055;-59
2023/01/30 11:29:39;;;;;;;16.13;3.80;;;;;;;8.14;58.86;101859.13;5080959;28;20110;-60
2023/01/30 11:32:14;;;;;;;17.00;3.08;;;;;;;8.08;59.44;101856.34;5084907;28;20212;-60
2023/01/30 11:34:43;;;;;;;17.90;3.95;;;;;;;7.99;59.40;101858.25;5082227;28;20108;-60
2023/01/30 11:37:23;;;;;;;16.95;3.08;;;;;;;7.94;59.64;101867.84;5081386;28;20082;-60
2023/01/30 11:39:52;;;;;;;12.93;2.70;;;;;;;7.93;60.20;101871.53;5074323;28;20076;-61
2023/01/30 11:42:27;;;;;;;15.23;4.40;;;;;;;8.05;59.47;101868.25;5080718;28;20036;-64
2023/01/30 11:44:58;;;;;;;17.00;3.65;;;;;;;8.23;58.86;101870.59;5080749;28;20048;-61